sensor_id;sensor_type;location;lat;lon;timestamp;P1;durP1;ratioP1;P2;durP2;ratioP2
49980;SDS011;35871;51.594;7.138;2023-11-21T06:45:58;6.22;;;3.30;;
49980;SDS011;35871;51.594;7.138;2023-11-21T06:56:00;7.47;;;4.78;;
49980;SDS011;35871;51.594;7.138;2023-11-21T07:01:01;5.97;;;3.33;;
49980;SDS011;35871;51.594;7.138;2023-11-21T07:11:04;5.18;;;3.63;;
49980;SDS011;35871;51.594;7.138;2023-11-21T07:16:05;4.57;;;3.15;;
49980;SDS011;35871;51.594;7.138;2023-11-21T07:21:06;5.85;;;3.80;;
49980;SDS011;35871;51.594;7.138;2023-11-21T07:26:08;5.28;;;3.15;;
49980;SDS011;35871;51.594;7.138;2023-11-21T07:31:10;4.63;;;2.92;;
49980;SDS011;35871;51.594;7.138;2023-11-21T07:36:12;5.72;;;3.95;;
49980;SDS011;35871;51.594;7.138;2023-11-21T07:41:13;5.07;;;3.10;;
49980;SDS011;35871;51.594;7.138;2023-11-21T07:46:17;8.48;;;4.72;;
49980;SDS011;35871;51.594;7.138;2023-11-21T07:51:20;5.35;;;3.55;;
49980;SDS011;35871;51.594;7.138;2023-11-21T07:56:22;7.72;;;5.15;;
49980;SDS011;35871;51.594;7.138;2023-11-21T08:01:23;6.28;;;3.83;;
49980;SDS011;35871;51.594;7.138;2023-11-21T08:06:31;9.32;;;6.25;;
49980;SDS011;35871;51.594;7.138;2023-11-21T08:11:32;10.13;;;6.80;;
49980;SDS011;35871;51.594;7.138;2023-11-21T08:16:33;13.40;;;8.48;;
49980;SDS011;35871;51.594;7.138;2023-11-21T08:21:34;17.02;;;9.88;;
49980;SDS011;35871;51.594;7.138;2023-11-21T08:26:37;16.42;;;9.98;;
49980;SDS011;35871;51.594;7.138;2023-11-21T08:36:42;20.52;;;12.23;;
49980;SDS011;35871;51.594;7.138;2023-11-21T08:41:43;21.20;;;12.30;;
49980;SDS011;35871;51.594;7.138;2023-11-21T08:51:46;16.45;;;10.38;;
49980;SDS011;35871;51.594;7.138;2023-11-21T08:56:47;16.05;;;10.65;;
49980;SDS011;35871;51.594;7.138;2023-11-21T09:01:50;11.50;;;8.13;;
49980;SDS011;35871;51.594;7.138;2023-11-21T09:06:51;12.38;;;8.50;;
49980;SDS011;35871;51.594;7.138;2023-11-21T09:11:52;12.10;;;8.32;;
49980;SDS011;35871;51.594;7.138;2023-11-21T09:16:53;10.90;;;7.07;;
49980;SDS011;35871;51.594;7.138;2023-11-21T09:21:54;10.18;;;7.30;;
49980;SDS011;35871;51.594;7.138;2023-11-21T09:26:57;13.10;;;7.47;;
49980;SDS011;35871;51.594;7.138;2023-11-21T09:31:58;12.35;;;8.43;;
49980;SDS011;35871;51.594;7.138;2023-11-21T09:36:59;10.18;;;6.93;;
49980;SDS011;35871;51.594;7.138;2023-11-21T09:42:10;9.73;;;7.55;;
49980;SDS011;35871;51.594;7.138;2023-11-21T09:47:13;12.32;;;8.02;;
49980;SDS011;35871;51.594;7.138;2023-11-21T09:52:18;10.38;;;7.88;;
49980;SDS011;35871;51.594;7.138;2023-11-21T09:57:25;11.00;;;7.43;;
49980;SDS011;35871;51.594;7.138;2023-11-21T10:02:26;8.75;;;6.43;;
49980;SDS011;35871;51.594;7.138;2023-11-21T10:07:32;11.50;;;8.20;;
49980;SDS011;35871;51.594;7.138;2023-11-21T10:12:35;8.38;;;6.32;;
49980;SDS011;35871;51.594;7.138;2023-11-21T10:17:38;9.95;;;6.25;;
49980;SDS011;35871;51.594;7.138;2023-11-21T10:22:45;10.90;;;6.28;;
49980;SDS011;35871;51.594;7.138;2023-11-21T10:27:47;10.82;;;7.22;;
49980;SDS011;35871;51.594;7.138;2023-11-21T10:32:48;12.75;;;8.52;;
49980;SDS011;35871;51.594;7.138;2023-11-21T10:37:54;10.38;;;7.25;;
49980;SDS011;35871;51.594;7.138;2023-11-21T10:43:06;11.18;;;7.65;;
49980;SDS011;35871;51.594;7.138;2023-11-21T10:48:12;12.10;;;8.57;;
49980;SDS011;35871;51.594;7.138;2023-11-21T10:53:17;13.15;;;9.18;;
49980;SDS011;35871;51.594;7.138;2023-11-21T10:58:19;13.02;;;9.50;;
49980;SDS011;35871;51.594;7.138;2023-11-21T11:03:20;12.50;;;8.48;;
49980;SDS011;35871;51.594;7.138;2023-11-21T11:08:22;14.43;;;11.23;;
49980;SDS011;35871;51.594;7.138;2023-11-21T11:13:26;15.10;;;10.10;;
49980;SDS011;35871;51.594;7.138;2023-11-21T11:18:30;13.73;;;10.15;;
49980;SDS011;35871;51.594;7.138;2023-11-21T11:28:55;9.05;;;7.38;;
49980;SDS011;35871;51.594;7.138;2023-11-21T11:34:17;15.88;;;11.93;;
49980;SDS011;35871;51.594;7.138;2023-11-21T11:39:30;10.88;;;9.00;;
49980;SDS011;35871;51.594;7.138;2023-11-21T11:49:32;12.32;;;8.55;;
49980;SDS011;35871;51.594;7.138;2023-11-21T11:54:36;16.50;;;12.23;;
49980;SDS011;35871;51.594;7.138;2023-11-21T12:04:58;9.10;;;7.55;;
49980;SDS011;35871;51.594;7.138;2023-11-21T12:09:59;10.07;;;7.72;;
49980;SDS011;35871;51.594;7.138;2023-11-21T12:15:00;10.85;;;7.97;;
49980;SDS011;35871;51.594;7.138;2023-11-21T12:20:02;7.78;;;6.55;;
49980;SDS011;35871;51.594;7.138;2023-11-21T12:25:04;9.13;;;5.85;;
49980;SDS011;35871;51.594;7.138;2023-11-21T12:30:06;8.68;;;6.60;;
49980;SDS011;35871;51.594;7.138;2023-11-21T12:35:13;8.05;;;5.97;;
49980;SDS011;35871;51.594;7.138;2023-11-21T12:40:14;8.57;;;6.70;;
49980;SDS011;35871;51.594;7.138;2023-11-21T12:50:18;11.43;;;8.35;;
49980;SDS011;35871;51.594;7.138;2023-11-21T12:55:23;8.45;;;6.53;;
49980;SDS011;35871;51.594;7.138;2023-11-21T13:00:28;8.98;;;6.30;;
49980;SDS011;35871;51.594;7.138;2023-11-21T13:05:46;8.73;;;5.97;;
49980;SDS011;35871;51.594;7.138;2023-11-21T13:11:37;8.25;;;6.05;;
49980;SDS011;35871;51.594;7.138;2023-11-21T13:17:17;7.97;;;5.22;;
49980;SDS011;35871;51.594;7.138;2023-11-21T13:22:59;8.00;;;6.25;;
49980;SDS011;35871;51.594;7.138;2023-11-21T13:28:20;7.87;;;5.90;;
49980;SDS011;35871;51.594;7.138;2023-11-21T13:33:49;6.90;;;4.95;;
49980;SDS011;35871;51.594;7.138;2023-11-21T13:39:10;6.88;;;5.28;;
49980;SDS011;35871;51.594;7.138;2023-11-21T13:55:58;6.55;;;4.78;;
49980;SDS011;35871;51.594;7.138;2023-11-21T14:01:40;7.60;;;5.32;;
49980;SDS011;35871;51.594;7.138;2023-11-21T14:12:53;5.85;;;3.92;;
49980;SDS011;35871;51.594;7.138;2023-11-21T14:24:00;7.57;;;5.82;;
49980;SDS011;35871;51.594;7.138;2023-11-21T14:29:07;4.82;;;3.58;;
49980;SDS011;35871;51.594;7.138;2023-11-21T14:34:29;5.95;;;4.03;;
49980;SDS011;35871;51.594;7.138;2023-11-21T14:39:40;4.82;;;3.13;;
49980;SDS011;35871;51.594;7.138;2023-11-21T14:44:57;4.75;;;3.38;;
49980;SDS011;35871;51.594;7.138;2023-11-21T14:50:38;4.27;;;3.33;;
49980;SDS011;35871;51.594;7.138;2023-11-21T14:56:26;8.07;;;3.90;;
49980;SDS011;35871;51.594;7.138;2023-11-21T15:01:37;7.15;;;3.22;;
49980;SDS011;35871;51.594;7.138;2023-11-21T15:07:03;4.27;;;3.30;;
49980;SDS011;35871;51.594;7.138;2023-11-21T15:13:03;4.53;;;2.80;;
49980;SDS011;35871;51.594;7.138;2023-11-21T15:18:14;3.97;;;2.60;;
49980;SDS011;35871;51.594;7.138;2023-11-21T15:23:22;6.15;;;4.63;;
49980;SDS011;35871;51.594;7.138;2023-11-21T15:28:32;5.32;;;3.47;;
49980;SDS011;35871;51.594;7.138;2023-11-21T15:39:17;7.15;;;5.75;;
49980;SDS011;35871;51.594;7.138;2023-11-21T15:44:21;9.25;;;7.20;;
49980;SDS011;35871;51.594;7.138;2023-11-21T15:54:52;6.90;;;4.97;;
49980;SDS011;35871;51.594;7.138;2023-11-21T15:59:55;5.53;;;4.28;;
49980;SDS011;35871;51.594;7.138;2023-11-21T16:05:07;7.28;;;5.30;;
49980;SDS011;35871;51.594;7.138;2023-11-21T16:10:09;4.80;;;2.95;;
49980;SDS011;35871;51.594;7.138;2023-11-21T16:15:10;9.27;;;7.30;;
49980;SDS011;35871;51.594;7.138;2023-11-21T16:25:15;8.93;;;4.57;;
49980;SDS011;35871;51.594;7.138;2023-11-21T16:35:33;7.22;;;5.70;;
49980;SDS011;35871;51.594;7.138;2023-11-21T16:40:44;6.13;;;4.80;;
49980;SDS011;35871;51.594;7.138;2023-11-21T16:45:48;9.82;;;6.05;;
49980;SDS011;35871;51.594;7.138;2023-11-21T16:56:23;7.07;;;5.63;;
49980;SDS011;35871;51.594;7.138;2023-11-21T17:01:31;6.60;;;5.20;;
49980;SDS011;35871;51.594;7.138;2023-11-21T17:07:15;7.63;;;5.30;;
49980;SDS011;35871;51.594;7.138;2023-11-21T17:12:23;5.88;;;4.90;;
49980;SDS011;35871;51.594;7.138;2023-11-21T17:17:26;4.78;;;3.70;;
49980;SDS011;35871;51.594;7.138;2023-11-21T17:27:29;5.28;;;3.70;;
49980;SDS011;35871;51.594;7.138;2023-11-21T18:00:48;4.95;;;3.45;;
49980;SDS011;35871;51.594;7.138;2023-11-21T18:06:27;3.65;;;2.78;;
49980;SDS011;35871;51.594;7.138;2023-11-21T18:22:43;3.60;;;2.70;;
